createdAt,value
2019-04-11T00:00:24.274Z,10.80
2019-04-11T00:01:35.801Z,11.10
2019-04-11T00:02:24.935Z,11.40
2019-04-11T00:03:25.015Z,11.20
2019-04-11T00:04:24.254Z,11.10
2019-04-11T00:05:23.895Z,11.00
2019-04-11T00:06:23.914Z,10.90
2019-04-11T00:07:24.589Z,11.10
2019-04-11T00:08:23.858Z,10.80
2019-04-11T00:09:24.875Z,11.50
2019-04-11T00:10:24.907Z,11.50
2019-04-11T00:11:24.004Z,11.10
2019-04-11T00:12:24.305Z,10.40
2019-04-11T00:13:26.911Z,10.80
2019-04-11T00:14:24.204Z,10.90
2019-04-11T00:15:24.489Z,11.00
2019-04-11T00:16:23.799Z,11.20
2019-04-11T00:17:23.793Z,10.70
2019-04-11T00:18:24.919Z,10.90
2019-04-11T00:19:23.753Z,11.30
2019-04-11T00:20:24.258Z,10.90
2019-04-11T00:21:24.607Z,11.40
2019-04-11T00:22:23.717Z,11.10
2019-04-11T00:23:23.969Z,10.80
2019-04-11T00:24:24.975Z,11.20
2019-04-11T00:25:23.669Z,11.20
2019-04-11T00:26:24.420Z,10.60
2019-04-11T00:27:24.563Z,11.10
2019-04-11T00:28:23.758Z,10.50
2019-04-11T00:29:23.636Z,11.00
2019-04-11T00:30:24.027Z,11.60
2019-04-11T00:31:23.601Z,11.70
2019-04-11T00:32:23.605Z,12.00
2019-04-11T00:33:24.678Z,11.70
2019-04-11T00:34:23.738Z,11.50
2019-04-11T00:35:23.836Z,11.20
2019-04-11T00:36:24.199Z,11.10
2019-04-11T00:37:23.544Z,11.70
2019-04-11T00:38:23.596Z,11.20
2019-04-11T00:39:23.670Z,11.40
2019-04-11T00:40:23.529Z,12.00
2019-04-11T00:41:23.913Z,11.40
2019-04-11T00:42:23.574Z,11.50
2019-04-11T00:43:31.835Z,11.80
2019-04-11T00:44:25.102Z,11.70
2019-04-11T00:45:23.485Z,11.60
2019-04-11T00:46:24.482Z,11.40
2019-04-11T00:47:23.439Z,11.30
2019-04-11T00:48:23.878Z,12.20
2019-04-11T00:49:24.200Z,11.70
2019-04-11T00:50:23.439Z,11.20
2019-04-11T00:51:23.620Z,11.40
2019-04-11T00:52:23.431Z,11.60
2019-04-11T00:53:23.370Z,12.10
2019-04-11T00:54:23.359Z,11.30
2019-04-11T00:55:23.820Z,11.80
2019-04-11T00:56:24.154Z,10.90
2019-04-11T00:57:23.380Z,10.70
2019-04-11T00:58:23.534Z,11.50
2019-04-11T00:59:24.509Z,11.50
2019-04-11T01:00:23.310Z,11.20
2019-04-11T01:01:23.929Z,11.20
2019-04-11T01:02:23.331Z,10.90
2019-04-11T01:03:24.242Z,11.20
2019-04-11T01:04:23.491Z,11.30
2019-04-11T01:05:23.551Z,10.60
2019-04-11T01:06:23.241Z,11.30
2019-04-11T01:07:23.242Z,11.00
2019-04-11T01:08:23.943Z,11.30
2019-04-11T01:09:24.189Z,11.20
2019-04-11T01:10:24.421Z,10.60
2019-04-11T01:11:23.796Z,11.10
2019-04-11T01:12:23.198Z,11.00
2019-04-11T01:13:23.818Z,11.40
2019-04-11T01:14:23.728Z,11.00
2019-04-11T01:15:23.772Z,10.90
2019-04-11T01:16:23.549Z,11.40
2019-04-11T01:17:23.349Z,11.60
2019-04-11T01:18:23.109Z,11.00
2019-04-11T01:19:23.124Z,10.90
2019-04-11T01:20:23.833Z,11.00
2019-04-11T01:21:24.195Z,11.30
2019-04-11T01:22:24.332Z,11.70
2019-04-11T01:23:23.050Z,11.10
2019-04-11T01:24:23.847Z,10.90
2019-04-11T01:25:24.308Z,11.50
2019-04-11T01:26:23.305Z,11.50
2019-04-11T01:27:23.713Z,11.50
2019-04-11T01:28:23.054Z,11.00
2019-04-11T01:29:23.082Z,11.30
2019-04-11T01:30:22.991Z,11.10
2019-04-11T01:31:22.985Z,12.00
2019-04-11T01:32:22.978Z,12.00
2019-04-11T01:33:24.050Z,11.80
2019-04-11T01:34:22.984Z,11.30
2019-04-11T01:35:23.534Z,11.00
2019-04-11T01:36:22.921Z,12.20
2019-04-11T01:37:23.897Z,11.60
2019-04-11T01:38:24.222Z,11.30
2019-04-11T01:39:23.274Z,11.80
2019-04-11T01:40:23.434Z,11.70
2019-04-11T01:41:22.885Z,10.80
2019-04-11T01:42:22.881Z,11.90
2019-04-11T01:43:24.032Z,11.30
2019-04-11T01:44:22.837Z,11.90
2019-04-11T01:45:22.857Z,12.00
2019-04-11T01:46:22.829Z,11.50
2019-04-11T01:47:22.798Z,11.90
2019-04-11T01:48:23.713Z,12.10
2019-04-11T01:49:23.955Z,12.60
2019-04-11T01:50:23.063Z,11.70
2019-04-11T01:51:23.373Z,10.80
2019-04-11T01:52:22.775Z,11.30
2019-04-11T01:53:22.749Z,11.50
2019-04-11T01:54:23.753Z,11.30
2019-04-11T01:55:22.711Z,11.30
2019-04-11T01:56:23.206Z,12.60
2019-04-11T01:57:22.707Z,11.60
2019-04-11T01:58:22.697Z,11.60
2019-04-11T01:59:23.613Z,11.00
2019-04-11T02:00:22.669Z,11.60
2019-04-11T02:01:23.013Z,11.40
2019-04-11T02:02:22.730Z,11.80
2019-04-11T02:03:23.324Z,11.60
2019-04-11T02:04:23.680Z,11.70
2019-04-11T02:05:23.052Z,11.40
2019-04-11T02:06:23.660Z,11.40
2019-04-11T02:07:22.655Z,11.50
2019-04-11T02:08:23.055Z,11.50
2019-04-11T02:09:22.569Z,11.80
2019-04-11T02:10:22.574Z,11.40
2019-04-11T02:11:23.472Z,11.20
2019-04-11T02:12:22.579Z,12.10
2019-04-11T02:13:22.535Z,11.80
2019-04-11T02:14:23.007Z,11.20
2019-04-11T02:15:22.503Z,11.10
2019-04-11T02:16:23.074Z,11.30
2019-04-11T02:17:22.495Z,11.60
2019-04-11T02:18:23.514Z,11.10
2019-04-11T02:19:22.477Z,11.10
2019-04-11T02:20:23.015Z,10.50
2019-04-11T02:21:22.455Z,12.10
2019-04-11T02:22:22.429Z,11.40
2019-04-11T02:23:23.367Z,11.80
2019-04-11T02:24:23.478Z,11.70
2019-04-11T02:25:22.674Z,12.10
2019-04-11T02:26:22.390Z,11.30
2019-04-11T02:27:23.121Z,11.40
2019-04-11T02:28:22.533Z,11.60
2019-04-11T02:29:23.443Z,10.80
2019-04-11T02:30:22.986Z,11.60
2019-04-11T02:31:23.220Z,11.10
2019-04-11T02:32:24.622Z,11.50
2019-04-11T02:33:24.256Z,11.60
2019-04-11T02:34:23.460Z,11.30
2019-04-11T02:35:24.149Z,11.10
2019-04-11T02:36:22.474Z,10.90
2019-04-11T02:37:24.068Z,11.20
2019-04-11T02:38:24.316Z,12.00
2019-04-11T02:39:24.474Z,11.90
2019-04-11T02:40:24.425Z,12.10
2019-04-11T02:41:22.238Z,11.30
2019-04-11T02:42:23.380Z,11.30
2019-04-11T02:43:22.955Z,11.10
2019-04-11T02:44:46.115Z,12.00
2019-04-11T02:45:36.205Z,11.60
2019-04-11T02:46:34.694Z,11.70
2019-04-11T02:47:27.626Z,11.70
2019-04-11T02:48:24.491Z,11.80
2019-04-11T02:49:23.779Z,12.50
2019-04-11T02:50:25.419Z,11.90
2019-04-11T02:51:22.854Z,11.70
2019-04-11T02:52:22.942Z,11.20
2019-04-11T02:53:23.744Z,11.50
2019-04-11T02:54:24.413Z,12.40
2019-04-11T02:55:22.107Z,11.10
2019-04-11T02:56:23.888Z,12.70
2019-04-11T02:57:23.410Z,12.40
2019-04-11T02:58:23.083Z,11.70
2019-04-11T02:59:22.097Z,11.90
2019-04-11T03:00:22.058Z,12.50
2019-04-11T03:01:22.064Z,11.90
2019-04-11T03:02:23.912Z,11.70
2019-04-11T03:03:23.242Z,12.60
2019-04-11T03:04:24.007Z,11.80
2019-04-11T03:05:22.063Z,11.70
2019-04-11T03:06:23.349Z,12.20
2019-04-11T03:07:22.739Z,12.00
2019-04-11T03:08:22.724Z,12.20
2019-04-11T03:09:23.641Z,11.30
2019-04-11T03:10:22.264Z,11.80
2019-04-11T03:11:24.157Z,11.40
2019-04-11T03:12:23.442Z,11.90
2019-04-11T03:13:23.284Z,12.60
2019-04-11T03:14:23.270Z,11.90
2019-04-11T03:15:37.557Z,11.70
2019-04-11T03:16:36.741Z,11.70
2019-04-11T03:17:27.503Z,12.40
2019-04-11T03:18:40.618Z,12.30
2019-04-11T03:19:37.480Z,11.80
2019-04-11T03:20:31.305Z,11.90
2019-04-11T03:21:25.957Z,12.00
2019-04-11T03:22:22.623Z,12.20
2019-04-11T03:23:23.559Z,11.80
2019-04-11T03:24:22.590Z,12.10
2019-04-11T03:25:22.587Z,12.00
2019-04-11T03:26:21.810Z,12.40
2019-04-11T03:27:22.558Z,11.80
2019-04-11T03:28:27.076Z,12.00
2019-04-11T03:29:24.302Z,12.70
2019-04-11T03:30:34.458Z,12.40
2019-04-11T03:33:29.834Z,13.30
2019-04-11T03:34:18.658Z,12.00
2019-04-11T03:35:11.952Z,12.30
2019-04-11T03:37:15.844Z,12.60
2019-04-11T03:37:47.782Z,12.50
2019-04-11T03:38:43.667Z,12.20
2019-04-11T03:39:48.890Z,12.40
2019-04-11T03:40:44.279Z,12.40
2019-04-11T03:41:38.805Z,12.80
2019-04-11T03:42:41.703Z,12.50
2019-04-11T03:43:34.451Z,12.80
2019-04-11T03:44:30.443Z,13.00
2019-04-11T03:45:43.456Z,13.10
2019-04-11T03:46:38.081Z,12.30
2019-04-11T03:47:34.764Z,12.60
2019-04-11T03:48:36.901Z,12.70
2019-04-11T03:49:31.658Z,12.50
2019-04-11T03:50:26.049Z,13.20
2019-04-11T03:51:22.811Z,13.00
2019-04-11T03:52:21.492Z,12.70
2019-04-11T03:53:23.507Z,12.70
2019-04-11T03:54:23.107Z,12.30
2019-04-11T03:55:21.992Z,13.30
2019-04-11T03:56:22.060Z,13.50
2019-04-11T03:57:21.679Z,12.50
2019-04-11T03:58:22.152Z,12.50
2019-04-11T03:59:23.404Z,12.00
2019-04-11T04:00:22.161Z,12.60
2019-04-11T04:01:23.247Z,12.30
2019-04-11T04:02:22.475Z,13.30
2019-04-11T04:03:22.471Z,12.30
2019-04-11T04:04:21.859Z,12.50
2019-04-11T04:05:21.778Z,13.30
2019-04-11T04:06:23.148Z,12.40
2019-04-11T04:07:21.573Z,12.80
2019-04-11T04:08:22.465Z,12.20
2019-04-11T04:09:21.434Z,11.90
2019-04-11T04:10:21.302Z,12.80
2019-04-11T04:11:23.144Z,12.20
2019-04-11T04:12:22.656Z,13.20
2019-04-11T04:13:22.684Z,12.90
2019-04-11T04:14:21.507Z,12.60
2019-04-11T04:15:36.101Z,12.50
2019-04-11T04:16:29.380Z,12.70
2019-04-11T04:17:23.627Z,12.80
2019-04-11T04:18:21.400Z,12.60
2019-04-11T04:19:22.511Z,12.60
2019-04-11T04:20:21.507Z,12.40
2019-04-11T04:21:22.678Z,12.50
2019-04-11T04:22:22.899Z,12.30
2019-04-11T04:23:21.553Z,12.80
2019-04-11T04:24:22.759Z,12.70
2019-04-11T04:25:21.409Z,12.40
2019-04-11T04:26:21.152Z,12.40
2019-04-11T04:27:23.240Z,12.40
2019-04-11T04:28:21.887Z,12.90
2019-04-11T04:29:21.915Z,13.00
2019-04-11T04:30:21.951Z,12.60
2019-04-11T04:31:22.540Z,12.10
2019-04-11T04:32:23.022Z,12.00
2019-04-11T04:33:22.807Z,12.60
2019-04-11T04:34:21.828Z,12.20
2019-04-11T04:35:23.144Z,12.70
2019-04-11T04:36:22.368Z,13.30
2019-04-11T04:37:22.385Z,12.50
2019-04-11T04:38:21.218Z,12.10
2019-04-11T04:39:22.714Z,12.40
2019-04-11T04:40:36.025Z,12.50
2019-04-11T04:41:30.846Z,12.90
2019-04-11T04:42:30.746Z,12.10
2019-04-11T04:43:22.778Z,12.40
2019-04-11T04:44:22.899Z,13.10
2019-04-11T04:45:21.492Z,13.10
2019-04-11T04:46:34.809Z,12.80
2019-04-11T04:47:30.456Z,13.20
2019-04-11T04:48:24.327Z,13.50
2019-04-11T04:49:21.311Z,13.20
2019-04-11T04:50:22.429Z,13.30
2019-04-11T04:51:24.082Z,12.90
2019-04-11T04:52:21.421Z,12.50
2019-04-11T04:53:23.494Z,13.40
2019-04-11T04:54:22.156Z,12.70
2019-04-11T04:55:21.619Z,12.60
2019-04-11T04:56:25.998Z,13.80
2019-04-11T04:57:21.941Z,12.60
2019-04-11T04:58:22.245Z,12.50
2019-04-11T04:59:21.607Z,12.90
2019-04-11T05:00:20.969Z,13.10
2019-04-11T05:01:21.714Z,12.60
2019-04-11T05:02:21.203Z,12.90
2019-04-11T05:03:22.191Z,12.40
2019-04-11T05:04:21.064Z,12.70
2019-04-11T05:05:22.012Z,12.60
2019-04-11T05:06:20.831Z,12.50
2019-04-11T05:07:20.952Z,12.40
2019-04-11T05:08:20.874Z,12.20
2019-04-11T05:09:21.319Z,13.20
2019-04-11T05:10:22.036Z,12.60
2019-04-11T05:11:20.671Z,12.80
2019-04-11T05:12:20.747Z,11.50
2019-04-11T05:13:21.667Z,12.60
2019-04-11T05:14:21.044Z,12.60
2019-04-11T05:15:20.916Z,11.70
2019-04-11T05:16:20.641Z,12.20
2019-04-11T05:17:20.595Z,12.60
2019-04-11T05:18:21.313Z,12.10
2019-04-11T05:19:22.017Z,12.60
2019-04-11T05:20:21.841Z,12.80
2019-04-11T05:21:21.301Z,12.30
2019-04-11T05:22:20.552Z,12.80
2019-04-11T05:23:21.407Z,12.40
2019-04-11T05:24:20.860Z,12.10
2019-04-11T05:25:20.601Z,12.10
2019-04-11T05:26:21.564Z,12.20
2019-04-11T05:27:20.932Z,11.80
2019-04-11T05:28:21.441Z,12.10
2019-04-11T05:29:21.583Z,12.30
2019-04-11T05:30:20.472Z,11.70
2019-04-11T05:31:20.702Z,12.20
2019-04-11T05:32:20.468Z,11.50
2019-04-11T05:33:21.257Z,11.30
2019-04-11T05:34:20.416Z,11.80
2019-04-11T05:35:20.425Z,11.50
2019-04-11T05:36:20.697Z,12.30
2019-04-11T05:37:20.792Z,11.50
2019-04-11T05:38:20.953Z,12.00
2019-04-11T05:39:20.363Z,12.30
2019-04-11T05:40:21.090Z,11.90
2019-04-11T05:41:22.022Z,11.50
2019-04-11T05:42:24.962Z,12.10
2019-04-11T05:43:22.520Z,11.90
2019-04-11T05:44:21.329Z,11.90
2019-04-11T05:45:22.643Z,11.70
2019-04-11T05:46:31.114Z,12.00
2019-04-11T05:47:21.443Z,12.70
2019-04-11T05:48:23.990Z,12.60
2019-04-11T05:49:22.851Z,11.90
2019-04-11T05:50:20.254Z,12.40
2019-04-11T05:51:22.375Z,12.20
2019-04-11T05:52:20.224Z,12.30
2019-04-11T05:53:21.325Z,11.90
2019-04-11T05:54:20.425Z,20.50
2019-04-11T05:55:20.201Z,20.20
2019-04-11T05:56:20.778Z,14.70
2019-04-11T05:57:23.740Z,16.20
2019-04-11T05:58:20.189Z,22.80
2019-04-11T05:59:21.479Z,26.40
2019-04-11T06:00:21.415Z,22.60
2019-04-11T06:01:20.368Z,16.10
2019-04-11T06:02:21.112Z,14.40
2019-04-11T06:03:20.116Z,12.10
2019-04-11T06:04:22.405Z,13.50
2019-04-11T06:05:23.856Z,12.10
2019-04-11T06:06:21.070Z,12.50
2019-04-11T06:07:20.949Z,10.70
2019-04-11T06:08:24.123Z,10.80
2019-04-11T06:09:21.042Z,10.30
2019-04-11T06:10:20.105Z,10.80
2019-04-11T06:11:23.679Z,10.00
2019-04-11T06:12:21.060Z,9.70
2019-04-11T06:13:20.598Z,9.20
2019-04-11T06:14:19.984Z,9.20
2019-04-11T06:15:21.387Z,9.10
2019-04-11T06:16:20.830Z,19.20
2019-04-11T06:17:19.978Z,16.60
2019-04-11T06:18:27.875Z,12.80
2019-04-11T06:19:20.965Z,9.60
2019-04-11T06:20:19.960Z,9.30
2019-04-11T06:21:20.015Z,19.80
2019-04-11T06:22:19.981Z,13.80
2019-04-11T06:23:19.892Z,11.00
2019-04-11T06:24:20.294Z,10.20
2019-04-11T06:25:19.868Z,8.70
2019-04-11T06:26:21.338Z,8.50
2019-04-11T06:27:20.046Z,8.30
2019-04-11T06:28:20.140Z,8.40
2019-04-11T06:29:24.313Z,8.60
2019-04-11T06:30:21.000Z,9.20
2019-04-11T06:31:20.170Z,11.90
2019-04-11T06:32:19.815Z,9.10
2019-04-11T06:33:20.598Z,8.20
2019-04-11T06:34:21.219Z,8.70
2019-04-11T06:35:19.981Z,8.40
2019-04-11T06:36:20.892Z,8.20
2019-04-11T06:37:19.743Z,9.30
2019-04-11T06:38:20.544Z,8.30
2019-04-11T06:39:21.035Z,7.70
2019-04-11T06:40:20.171Z,8.20
2019-04-11T06:41:19.696Z,8.00
2019-04-11T06:42:19.689Z,7.50
2019-04-11T06:43:20.294Z,7.60
2019-04-11T06:44:19.664Z,7.20
2019-04-11T06:45:19.769Z,7.40
2019-04-11T06:46:20.750Z,7.10
2019-04-11T06:47:20.871Z,7.00
2019-04-11T06:48:22.251Z,6.90
2019-04-11T06:49:20.399Z,6.70
2019-04-11T06:50:19.613Z,6.90
2019-04-11T06:51:19.872Z,6.40
2019-04-11T06:52:19.629Z,6.60
2019-04-11T06:53:19.570Z,6.60
2019-04-11T06:54:19.576Z,6.40
2019-04-11T06:55:20.353Z,7.10
2019-04-11T06:56:19.535Z,6.60
2019-04-11T06:57:19.524Z,6.50
2019-04-11T06:58:19.543Z,6.50
2019-04-11T06:59:20.561Z,6.50
2019-04-11T07:00:19.498Z,6.70
2019-04-11T07:01:20.326Z,6.80
2019-04-11T07:02:21.879Z,6.60
2019-04-11T07:03:23.179Z,6.60
2019-04-11T07:04:21.737Z,7.00
2019-04-11T07:05:19.441Z,6.60
2019-04-11T07:06:19.643Z,6.10
2019-04-11T07:07:20.485Z,6.90
2019-04-11T07:08:20.233Z,6.60
2019-04-11T07:09:20.160Z,7.00
2019-04-11T07:10:20.231Z,6.90
2019-04-11T07:11:19.898Z,7.10
2019-04-11T07:12:19.373Z,7.00
2019-04-11T07:13:20.624Z,6.70
2019-04-11T07:14:20.386Z,6.60
2019-04-11T07:15:19.349Z,6.80
2019-04-11T07:16:20.030Z,6.80
2019-04-11T07:17:19.318Z,6.80
2019-04-11T07:18:20.483Z,6.60
2019-04-11T07:19:19.841Z,7.10
2019-04-11T07:20:19.301Z,6.60
2019-04-11T07:21:19.276Z,6.70
2019-04-11T07:22:19.286Z,7.00
2019-04-11T07:23:20.108Z,7.20
2019-04-11T07:24:20.298Z,6.70
2019-04-11T07:25:20.274Z,6.60
2019-04-11T07:26:19.244Z,6.90
2019-04-11T07:27:20.159Z,6.80
2019-04-11T07:28:19.267Z,6.60
2019-04-11T07:29:19.441Z,7.10
2019-04-11T07:30:19.354Z,6.60
2019-04-11T07:31:19.390Z,5.90
2019-04-11T07:32:20.214Z,6.60
2019-04-11T07:33:20.154Z,6.30
2019-04-11T07:34:19.484Z,6.20
2019-04-11T07:35:19.371Z,5.90
2019-04-11T07:36:20.870Z,6.10
2019-04-11T07:37:19.232Z,5.80
2019-04-11T07:38:19.101Z,5.70
2019-04-11T07:39:20.161Z,6.00
2019-04-11T07:40:19.155Z,5.80
2019-04-11T07:41:19.536Z,5.60
2019-04-11T07:42:19.052Z,5.80
2019-04-11T07:43:19.494Z,6.10
2019-04-11T07:44:19.613Z,6.10
2019-04-11T07:45:19.037Z,6.20
2019-04-11T07:46:19.090Z,5.50
2019-04-11T07:47:22.196Z,5.70
2019-04-11T07:48:19.992Z,5.80
2019-04-11T07:49:19.905Z,5.70
2019-04-11T07:50:19.841Z,6.10
2019-04-11T07:51:19.637Z,5.10
2019-04-11T07:52:18.954Z,5.90
2019-04-11T07:53:19.712Z,5.30
2019-04-11T07:54:20.130Z,6.00
2019-04-11T07:55:18.995Z,5.40
2019-04-11T07:56:18.916Z,6.20
2019-04-11T07:57:19.332Z,6.20
2019-04-11T07:58:19.407Z,6.30
2019-04-11T07:59:19.586Z,6.00
2019-04-11T08:00:19.364Z,5.60
2019-04-11T08:01:21.069Z,6.00
2019-04-11T08:02:18.908Z,5.80
2019-04-11T08:03:19.202Z,5.90
2019-04-11T08:04:19.456Z,5.80
2019-04-11T08:05:19.245Z,6.60
2019-04-11T08:06:19.819Z,5.90
2019-04-11T08:07:19.866Z,6.20
2019-04-11T08:08:18.801Z,5.90
2019-04-11T08:09:18.809Z,6.30
2019-04-11T08:10:18.766Z,6.00
2019-04-11T08:11:19.772Z,6.40
2019-04-11T08:12:18.753Z,6.00
2019-04-11T08:13:18.729Z,6.40
2019-04-11T08:14:18.759Z,6.60
2019-04-11T08:15:19.629Z,6.30
2019-04-11T08:16:18.701Z,6.20
2019-04-11T08:17:27.971Z,6.70
2019-04-11T08:18:20.799Z,6.40
2019-04-11T08:19:20.737Z,6.20
2019-04-11T08:20:19.406Z,6.00
2019-04-11T08:21:19.723Z,5.60
2019-04-11T08:22:19.014Z,5.70
2019-04-11T08:23:19.401Z,6.20
2019-04-11T08:24:18.624Z,6.10
2019-04-11T08:25:18.608Z,6.50
2019-04-11T08:26:18.636Z,6.10
2019-04-11T08:27:19.645Z,5.80
2019-04-11T08:28:18.656Z,6.20
2019-04-11T08:29:18.561Z,6.40
2019-04-11T08:30:19.042Z,6.30
2019-04-11T08:31:19.387Z,6.20
2019-04-11T08:32:19.875Z,5.80
2019-04-11T08:33:18.525Z,6.10
2019-04-11T08:34:20.198Z,6.80
2019-04-11T08:35:19.768Z,6.20
2019-04-11T08:36:19.748Z,6.50
2019-04-11T08:37:19.326Z,6.80
2019-04-11T08:38:18.637Z,6.60
2019-04-11T08:39:18.452Z,6.10
2019-04-11T08:40:19.634Z,6.10
2019-04-11T08:41:19.689Z,6.10
2019-04-11T08:42:18.432Z,6.20
2019-04-11T08:43:19.236Z,6.00
2019-04-11T08:44:19.427Z,6.20
2019-04-11T08:45:19.611Z,6.10
2019-04-11T08:46:18.544Z,6.60
2019-04-11T08:47:18.421Z,6.50
2019-04-11T08:48:19.169Z,6.60
2019-04-11T08:49:18.367Z,6.40
2019-04-11T08:50:18.622Z,6.30
2019-04-11T08:51:19.191Z,6.40
2019-04-11T08:52:18.412Z,6.30
2019-04-11T08:53:18.636Z,5.90
2019-04-11T08:54:19.441Z,7.10
2019-04-11T08:55:19.018Z,6.60
2019-04-11T08:56:18.984Z,6.20
2019-04-11T08:57:18.274Z,5.90
2019-04-11T08:58:18.348Z,6.50
2019-04-11T08:59:18.929Z,6.50
2019-04-11T09:00:18.255Z,6.30
2019-04-11T09:01:18.258Z,5.80
2019-04-11T09:02:18.513Z,6.30
2019-04-11T09:03:18.224Z,6.10
2019-04-11T09:04:18.492Z,6.10
2019-04-11T09:05:20.261Z,6.30
2019-04-11T09:06:18.821Z,6.20
2019-04-11T09:07:19.169Z,6.50
2019-04-11T09:08:18.383Z,6.50
2019-04-11T09:09:18.801Z,6.20
2019-04-11T09:10:18.165Z,6.20
2019-04-11T09:11:18.144Z,6.20
2019-04-11T09:12:18.412Z,5.70
2019-04-11T09:13:19.385Z,6.10
2019-04-11T09:14:18.175Z,6.30
2019-04-11T09:15:19.116Z,6.20
2019-04-11T09:16:18.316Z,6.20
2019-04-11T09:17:19.365Z,6.00
2019-04-11T09:18:18.089Z,6.30
2019-04-11T09:19:18.829Z,6.10
2019-04-11T09:20:19.176Z,6.40
2019-04-11T09:21:18.279Z,6.10
2019-04-11T09:22:18.029Z,5.80
2019-04-11T09:23:18.089Z,6.00
2019-04-11T09:24:18.689Z,5.80
2019-04-11T09:25:18.939Z,5.60
2019-04-11T09:26:18.096Z,5.90
2019-04-11T09:27:17.989Z,5.70
2019-04-11T09:28:17.960Z,5.70
2019-04-11T09:29:17.955Z,5.60
2019-04-11T09:30:19.020Z,5.50
2019-04-11T09:31:19.087Z,5.40
2019-04-11T09:32:18.182Z,5.70
2019-04-11T09:33:17.931Z,5.30
2019-04-11T09:34:17.907Z,5.60
2019-04-11T09:35:18.544Z,5.50
2019-04-11T09:36:17.882Z,5.40
2019-04-11T09:37:19.148Z,5.50
2019-04-11T09:38:18.183Z,5.60
2019-04-11T09:39:19.141Z,5.80
2019-04-11T09:40:17.860Z,5.70
2019-04-11T09:41:18.549Z,5.50
2019-04-11T09:42:20.230Z,5.60
2019-04-11T09:43:17.983Z,5.30
2019-04-11T09:44:17.877Z,5.40
2019-04-11T09:45:17.801Z,5.40
2019-04-11T09:46:18.606Z,5.40
2019-04-11T09:47:17.838Z,5.50
2019-04-11T09:48:19.474Z,5.50
2019-04-11T09:49:18.458Z,5.40
2019-04-11T09:50:18.291Z,5.80
2019-04-11T09:51:17.898Z,5.40
2019-04-11T09:52:17.831Z,5.40
2019-04-11T09:53:19.151Z,5.50
2019-04-11T09:54:17.713Z,5.40
2019-04-11T09:55:17.682Z,5.40
2019-04-11T09:56:18.623Z,5.60
2019-04-11T09:57:18.550Z,5.30
2019-04-11T09:58:17.657Z,5.30
2019-04-11T09:59:17.649Z,5.40
2019-04-11T10:00:18.522Z,5.50
2019-04-11T10:01:18.192Z,5.40
2019-04-11T10:02:18.617Z,5.30
2019-04-11T10:03:17.614Z,5.90
2019-04-11T10:04:18.810Z,5.10
2019-04-11T10:05:18.080Z,5.60
2019-04-11T10:06:17.581Z,5.30
2019-04-11T10:07:17.671Z,5.30
2019-04-11T10:08:17.588Z,5.40
2019-04-11T10:09:17.568Z,5.50
2019-04-11T10:10:17.540Z,5.30
2019-04-11T10:11:17.731Z,5.00
2019-04-11T10:12:17.973Z,5.20
2019-04-11T10:13:18.615Z,5.70
2019-04-11T10:14:17.709Z,5.60
2019-04-11T10:15:18.851Z,5.80
2019-04-11T10:16:17.991Z,5.70
2019-04-11T10:17:17.473Z,6.10
2019-04-11T10:18:25.320Z,5.80
2019-04-11T10:19:18.436Z,5.60
2019-04-11T10:20:18.367Z,5.30
2019-04-11T10:21:17.517Z,5.80
2019-04-11T10:22:18.516Z,5.70
2019-04-11T10:23:18.709Z,5.40
2019-04-11T10:24:20.609Z,5.80
2019-04-11T10:25:17.394Z,5.30
2019-04-11T10:26:18.103Z,5.20
2019-04-11T10:27:17.380Z,5.30
2019-04-11T10:28:17.537Z,5.80
2019-04-11T10:29:17.338Z,5.40
2019-04-11T10:30:17.437Z,5.50
2019-04-11T10:31:18.086Z,5.40
2019-04-11T10:32:17.338Z,5.50
2019-04-11T10:33:17.302Z,5.40
2019-04-11T10:34:17.553Z,5.00
2019-04-11T10:35:19.035Z,5.60
2019-04-11T10:36:17.274Z,5.40
2019-04-11T10:37:17.872Z,5.50
2019-04-11T10:38:17.257Z,5.10
2019-04-11T10:39:18.263Z,5.50
2019-04-11T10:40:17.728Z,5.20
2019-04-11T10:41:17.223Z,5.00
2019-04-11T10:42:18.131Z,5.70
2019-04-11T10:43:18.214Z,5.20
2019-04-11T10:44:18.004Z,5.40
2019-04-11T10:45:18.365Z,5.40
2019-04-11T10:46:17.426Z,5.20
2019-04-11T10:47:17.180Z,5.10
2019-04-11T10:48:17.930Z,5.40
2019-04-11T10:49:17.809Z,5.30
2019-04-11T10:50:17.570Z,5.10
2019-04-11T10:51:17.142Z,5.50
2019-04-11T10:52:18.265Z,5.70
2019-04-11T10:53:18.002Z,5.90
2019-04-11T10:54:17.091Z,5.50
2019-04-11T10:55:17.705Z,5.30
2019-04-11T10:56:18.063Z,5.50
2019-04-11T10:57:18.077Z,5.60
2019-04-11T10:58:17.044Z,5.30
2019-04-11T10:59:17.596Z,5.90
2019-04-11T11:00:17.016Z,5.70
2019-04-11T11:01:17.849Z,5.40
2019-04-11T11:02:17.570Z,5.50
2019-04-11T11:03:18.103Z,5.20
2019-04-11T11:04:18.010Z,6.00
2019-04-11T11:05:18.885Z,5.70
2019-04-11T11:06:17.678Z,5.80
2019-04-11T11:07:18.288Z,5.80
2019-04-11T11:08:17.438Z,5.70
2019-04-11T11:09:17.689Z,5.30
2019-04-11T11:10:17.519Z,5.80
2019-04-11T11:11:17.544Z,5.40
2019-04-11T11:12:16.976Z,5.90
2019-04-11T11:13:18.018Z,5.70
2019-04-11T11:14:16.869Z,6.20
2019-04-11T11:15:17.690Z,6.10
2019-04-11T11:16:16.956Z,6.10
2019-04-11T11:17:38.711Z,5.80
2019-04-11T11:18:44.062Z,5.90
2019-04-11T11:19:40.270Z,6.00
2019-04-11T11:20:26.065Z,5.40
2019-04-11T11:21:17.795Z,5.90
2019-04-11T11:22:16.801Z,6.40
2019-04-11T11:23:16.766Z,6.00
2019-04-11T11:24:17.657Z,6.10
2019-04-11T11:25:18.137Z,5.60
2019-04-11T11:26:19.777Z,5.60
2019-04-11T11:27:18.127Z,6.00
2019-04-11T11:28:17.804Z,6.30
2019-04-11T11:29:17.501Z,6.10
2019-04-11T11:30:16.770Z,6.20
2019-04-11T11:31:16.698Z,6.20
2019-04-11T11:32:16.831Z,6.00
2019-04-11T11:33:16.667Z,5.80
2019-04-11T11:34:19.993Z,5.90
2019-04-11T11:35:16.640Z,6.00
2019-04-11T11:36:17.348Z,6.20
2019-04-11T11:37:17.559Z,6.10
2019-04-11T11:38:17.693Z,6.20
2019-04-11T11:39:17.395Z,5.70
2019-04-11T11:40:18.321Z,5.80
2019-04-11T11:41:16.578Z,5.40
2019-04-11T11:42:17.829Z,5.90
2019-04-11T11:43:16.930Z,6.00
2019-04-11T11:44:16.539Z,5.70
2019-04-11T11:45:17.336Z,5.20
2019-04-11T11:46:17.803Z,5.80
2019-04-11T11:47:17.441Z,5.90
2019-04-11T11:48:20.054Z,5.60
2019-04-11T11:49:36.278Z,5.40
2019-04-11T11:50:20.026Z,5.30
2019-04-11T11:51:17.275Z,5.50
2019-04-11T11:52:17.227Z,5.00
2019-04-11T11:53:16.490Z,5.90
2019-04-11T11:54:17.568Z,5.20
2019-04-11T11:55:18.977Z,5.70
2019-04-11T11:56:16.416Z,5.40
2019-04-11T11:57:16.438Z,5.40
2019-04-11T11:58:18.126Z,5.40
2019-04-11T11:59:16.938Z,5.50
2019-04-11T12:00:16.893Z,5.60
2019-04-11T12:01:16.403Z,5.40
2019-04-11T12:02:18.257Z,6.20
2019-04-11T12:03:17.026Z,5.90
2019-04-11T12:04:16.932Z,5.50
2019-04-11T12:05:18.411Z,5.70
2019-04-11T12:06:19.751Z,6.10
2019-04-11T12:07:17.368Z,6.20
2019-04-11T12:08:18.056Z,6.00
2019-04-11T12:09:16.314Z,5.60
2019-04-11T12:10:17.397Z,6.10
2019-04-11T12:11:16.253Z,5.90
2019-04-11T12:12:16.246Z,5.50
2019-04-11T12:13:17.165Z,5.90
2019-04-11T12:14:16.223Z,5.10
2019-04-11T12:15:20.207Z,5.70
2019-04-11T12:16:20.734Z,5.40
2019-04-11T12:17:17.189Z,5.40
2019-04-11T12:18:18.452Z,5.70
2019-04-11T12:19:19.682Z,5.30
2019-04-11T12:20:17.165Z,5.60
2019-04-11T12:21:20.493Z,5.80
2019-04-11T12:22:18.095Z,6.00
2019-04-11T12:23:17.129Z,5.40
2019-04-11T12:24:16.106Z,5.50
2019-04-11T12:25:16.569Z,5.40
2019-04-11T12:26:16.789Z,5.30
2019-04-11T12:27:16.483Z,5.60
2019-04-11T12:28:17.360Z,5.80
2019-04-11T12:29:17.060Z,5.50
2019-04-11T12:30:20.848Z,6.00
2019-04-11T12:31:17.537Z,5.60
2019-04-11T12:32:16.633Z,5.90
2019-04-11T12:33:17.225Z,6.20
2019-04-11T12:34:16.493Z,6.10
2019-04-11T12:35:15.997Z,6.00
2019-04-11T12:36:16.853Z,6.00
2019-04-11T12:37:17.697Z,6.00
2019-04-11T12:38:15.998Z,6.00
2019-04-11T12:39:15.950Z,5.40
2019-04-11T12:40:15.963Z,5.80
2019-04-11T12:41:15.922Z,5.80
2019-04-11T12:42:15.929Z,5.50
2019-04-11T12:43:15.913Z,5.90
2019-04-11T12:44:15.903Z,6.00
2019-04-11T12:45:15.958Z,5.70
2019-04-11T12:46:15.890Z,5.60
2019-04-11T12:47:15.857Z,5.70
2019-04-11T12:48:15.867Z,5.50
2019-04-11T12:49:15.867Z,5.20
2019-04-11T12:50:15.832Z,5.50
2019-04-11T12:51:15.829Z,5.30
2019-04-11T12:52:15.848Z,5.20
2019-04-11T12:53:15.815Z,5.50
2019-04-11T12:54:15.803Z,5.60
2019-04-11T12:55:15.778Z,4.80
2019-04-11T12:56:15.838Z,5.10
2019-04-11T12:57:15.760Z,5.30
2019-04-11T12:58:15.762Z,5.70
2019-04-11T12:59:15.731Z,5.60
2019-04-11T13:00:15.735Z,4.90
2019-04-11T13:01:15.741Z,4.70
2019-04-11T13:02:15.775Z,5.60
2019-04-11T13:03:15.712Z,5.40
2019-04-11T13:04:15.741Z,5.70
2019-04-11T13:05:15.693Z,5.20
2019-04-11T13:06:15.675Z,5.40
2019-04-11T13:07:15.661Z,5.30